Time;durP1;ratioP1;P1;durP2;ratioP2;P2;SDS_P1;SDS_P2;PMS_P1;PMS_P2;Temp;Humidity;BMP_temperature;BMP_pressure;BME280_temperature;BME280_humidity;BME280_pressure;Samples;Min_cycle;Max_cycle;Signal;HPM_P1;HPM_P2
2024/01/15 00:02:25;;;;;;;5.3;2.5;;;;;;;1.06;72.69;96911.666666667;;;;
2024/01/15 00:13:25;;;;;;;5.3;2.5;;;;;;;1.06;72.19;96908.333333333;;;;
2024/01/15 00:23:25;;;;;;;5.3;2.5;;;;;;;1.11;71.39;96881.666666667;;;;
2024/01/15 00:34:25;;;;;;;5.2;2.8;;;;;;;1.14;71.74;96866.666666667;;;;
2024/01/15 00:44:25;;;;;;;5.2;2.8;;;;;;;1.1;71.73;96865;;;;
2024/01/15 00:54:25;;;;;;;5.2;2.8;;;;;;;1.07;71.31;96848.333333333;;;;
2024/01/15 01:05:25;;;;;;;5.5;3.5;;;;;;;1.07;71.32;96845;;;;
2024/01/15 01:15:25;;;;;;;5.5;3.5;;;;;;;1.06;71.27;96846.666666667;;;;
2024/01/15 01:26:25;;;;;;;4.6;2.6;;;;;;;1.1;70.94;96833.333333333;;;;
2024/01/15 01:36:25;;;;;;;4.6;2.6;;;;;;;1.05;71.16;96825;;;;
2024/01/15 01:47:26;;;;;;;4.6;2.6;;;;;;;1.07;71.14;96798.333333333;;;;
2024/01/15 01:57:25;;;;;;;5.3;2.6;;;;;;;1.04;71.11;96781.666666667;;;;
2024/01/15 02:08:25;;;;;;;5.3;2.6;;;;;;;1.04;71.43;96765;;;;
2024/01/15 02:19:25;;;;;;;5.3;2.6;;;;;;;1;71.33;96755;;;;
2024/01/15 02:30:25;;;;;;;6.4;2.5;;;;;;;0.93;71.8;96738.333333333;;;;
2024/01/15 02:40:25;;;;;;;6.4;2.5;;;;;;;0.91;71.65;96721.666666667;;;;
2024/01/15 02:51:25;;;;;;;6.4;2.5;;;;;;;0.75;71.39;96700;;;;
2024/01/15 03:02:25;;;;;;;3.9;1.8;;;;;;;0.79;71.1;96701.666666667;;;;
2024/01/15 03:12:25;;;;;;;3.9;1.8;;;;;;;0.8;70.87;96693.333333333;;;;
2024/01/15 03:22:25;;;;;;;3.9;1.8;;;;;;;0.81;70.93;96685;;;;
2024/01/15 03:32:25;;;;;;;3.7;2.5;;;;;;;0.83;71.18;96683.333333333;;;;
2024/01/15 03:43:25;;;;;;;3.7;2.5;;;;;;;0.78;70.91;96670;;;;
2024/01/15 03:53:25;;;;;;;3.7;2.5;;;;;;;0.79;70.5;96648.333333333;;;;
2024/01/15 04:04:25;;;;;;;3.4;2;;;;;;;0.81;70.11;96641.666666667;;;;
2024/01/15 04:14:25;;;;;;;3.4;2;;;;;;;0.75;70.36;96628.333333333;;;;
2024/01/15 04:24:25;;;;;;;3.4;2;;;;;;;0.73;69.4;96606.666666667;;;;
2024/01/15 04:34:26;;;;;;;3.7;2;;;;;;;0.71;69.21;96600;;;;
2024/01/15 04:45:28;;;;;;;3.7;2;;;;;;;0.91;68.86;96595;;;;
2024/01/15 04:55:25;;;;;;;5.9;1.8;;;;;;;0.89;68.76;96601.666666667;;;;
2024/01/15 05:06:25;;;;;;;5.9;1.8;;;;;;;0.99;69.14;96578.333333333;;;;
2024/01/15 05:16:25;;;;;;;5.9;1.8;;;;;;;0.97;69;96590;;;;
2024/01/15 05:27:25;;;;;;;3.4;1.8;;;;;;;1;69.06;96573.333333333;;;;
2024/01/15 05:37:25;;;;;;;3.4;1.8;;;;;;;1.08;68.75;96583.333333333;;;;
2024/01/15 05:48:25;;;;;;;3.4;1.8;;;;;;;1.07;69.03;96576.666666667;;;;
2024/01/15 05:58:25;;;;;;;4.4;2.2;;;;;;;1.03;69.78;96571.666666667;;;;
2024/01/15 06:08:27;;;;;;;4.4;2.2;;;;;;;1.01;70.75;96591.666666667;;;;
2024/01/15 06:19:25;;;;;;;4.4;2.2;;;;;;;0.99;70.88;96573.333333333;;;;
2024/01/15 06:30:25;;;;;;;5.9;2.3;;;;;;;1.02;70.95;96581.666666667;;;;
2024/01/15 06:40:25;;;;;;;5.9;2.3;;;;;;;1.04;70.68;96576.666666667;;;;
2024/01/15 06:50:25;;;;;;;5.9;2.3;;;;;;;1.1;70.09;96585;;;;
2024/01/15 07:00:25;;;;;;;6.1;2.7;;;;;;;1.18;70.26;96580;;;;
2024/01/15 07:10:26;;;;;;;6.1;2.7;;;;;;;1.22;70.01;96590;;;;
2024/01/15 07:21:25;;;;;;;6.1;2.7;;;;;;;1.35;69.95;96600;;;;
2024/01/15 07:31:25;;;;;;;4.7;2.6;;;;;;;1.4;69.74;96598.333333333;;;;
2024/01/15 07:42:25;;;;;;;4.7;2.6;;;;;;;1.47;69.92;96616.666666667;;;;
2024/01/15 07:52:25;;;;;;;4.7;2.6;;;;;;;1.6;69.27;96631.666666667;;;;
2024/01/15 08:03:25;;;;;;;8;3.9;;;;;;;1.86;68.93;96635;;;;
2024/01/15 08:13:25;;;;;;;8;3.9;;;;;;;2;68.52;96646.666666667;;;;
2024/01/15 08:24:25;;;;;;;8;3.9;;;;;;;1.88;70.64;96665;;;;
2024/01/15 08:34:25;;;;;;;6.4;3.9;;;;;;;1.91;72.05;96671.666666667;;;;
2024/01/15 08:45:25;;;;;;;6.4;3.9;;;;;;;2.05;71.02;96660;;;;
2024/01/15 08:55:25;;;;;;;6.6;4;;;;;;;2.42;69.98;96673.333333333;;;;
2024/01/15 09:06:25;;;;;;;6.6;4;;;;;;;2.69;67.91;96675;;;;
2024/01/15 09:16:25;;;;;;;6.6;4;;;;;;;2.48;67.98;96685;;;;
2024/01/15 09:27:26;;;;;;;9.7;5.2;;;;;;;2.12;67.08;96680;;;;
2024/01/15 09:37:25;;;;;;;9.7;5.2;;;;;;;2.03;69.02;96673.333333333;;;;
2024/01/15 09:47:25;;;;;;;9.7;5.2;;;;;;;2.17;68.45;96670;;;;
2024/01/15 09:57:25;;;;;;;10.9;5.1;;;;;;;1.86;69.92;96665;;;;
2024/01/15 10:08:25;;;;;;;10.9;5.1;;;;;;;2.06;68.29;96666.666666667;;;;
2024/01/15 10:19:25;;;;;;;10.9;5.1;;;;;;;1.9;67.46;96668.333333333;;;;
2024/01/15 10:30:25;;;;;;;11.5;6.1;;;;;;;2.06;67.81;96665;;;;
2024/01/15 10:41:25;;;;;;;11.5;6.1;;;;;;;2.08;67.07;96656.666666667;;;;
2024/01/15 10:51:25;;;;;;;11.5;6.1;;;;;;;2.18;66.85;96660;;;;
2024/01/15 11:01:25;;;;;;;8.4;3.7;;;;;;;2.3;64.38;96658.333333333;;;;
2024/01/15 11:11:25;;;;;;;8.4;3.7;;;;;;;2.3;63.34;96648.333333333;;;;
2024/01/15 11:22:25;;;;;;;8.4;3.7;;;;;;;2.27;62.32;96663.333333333;;;;
2024/01/15 11:33:25;;;;;;;7.6;4.1;;;;;;;2.88;61.56;96661.666666667;;;;
2024/01/15 11:44:25;;;;;;;7.6;4.1;;;;;;;3.31;59.41;96641.666666667;;;;
2024/01/15 11:54:25;;;;;;;6.6;4.1;;;;;;;3.16;59.74;96653.333333333;;;;
2024/01/15 12:04:26;;;;;;;6.6;4.1;;;;;;;2.66;61.55;96650;;;;
2024/01/15 12:15:25;;;;;;;6.6;4.1;;;;;;;2.22;61.18;96640;;;;
2024/01/15 12:25:27;;;;;;;9.4;5.4;;;;;;;2.26;61.18;96638.333333333;;;;
2024/01/15 12:36:25;;;;;;;9.4;5.4;;;;;;;2.17;61.03;96641.666666667;;;;
2024/01/15 12:46:25;;;;;;;9.4;5.4;;;;;;;1.91;61.34;96641.666666667;;;;
2024/01/15 12:56:25;;;;;;;10.5;4.9;;;;;;;2;61.8;96646.666666667;;;;
2024/01/15 13:07:29;;;;;;;10.5;4.9;;;;;;;2.18;60.99;96650;;;;
2024/01/15 13:17:25;;;;;;;10.5;4.9;;;;;;;2.15;59.71;96645;;;;
2024/01/15 13:27:25;;;;;;;8.2;4.3;;;;;;;1.96;60.49;96648.333333333;;;;
2024/01/15 13:38:26;;;;;;;8.2;4.3;;;;;;;1.81;61.12;96636.666666667;;;;
2024/01/15 13:48:26;;;;;;;8.2;4.3;;;;;;;1.92;61.29;96641.666666667;;;;
2024/01/15 13:59:25;;;;;;;6.6;3.8;;;;;;;1.76;62.07;96641.666666667;;;;
2024/01/15 14:09:25;;;;;;;6.6;3.8;;;;;;;1.53;61.62;96633.333333333;;;;
2024/01/15 14:20:25;;;;;;;6.6;3.8;;;;;;;1.34;62.8;96633.333333333;;;;
2024/01/15 14:30:25;;;;;;;8.5;3.5;;;;;;;1.2;63.57;96645;;;;
2024/01/15 14:40:25;;;;;;;8.5;3.5;;;;;;;0.99;64.32;96643.333333333;;;;
2024/01/15 14:51:26;;;;;;;8.5;3.5;;;;;;;0.83;64.52;96648.333333333;;;;
2024/01/15 15:01:25;;;;;;;8.6;4.2;;;;;;;0.79;65.33;96646.666666667;;;;
2024/01/15 15:12:27;;;;;;;8.6;4.2;;;;;;;0.71;66.06;96651.666666667;;;;
2024/01/15 15:23:25;;;;;;;8.6;4.2;;;;;;;0.71;66.14;96658.333333333;;;;
2024/01/15 15:33:25;;;;;;;9.1;5.1;;;;;;;0.71;66.75;96656.666666667;;;;
2024/01/15 15:43:25;;;;;;;9.1;5.1;;;;;;;0.67;67.08;96658.333333333;;;;
2024/01/15 15:54:25;;;;;;;13.6;6.1;;;;;;;0.61;67.29;96658.333333333;;;;
2024/01/15 16:05:25;;;;;;;13.6;6.1;;;;;;;0.52;67.7;96661.666666667;;;;
2024/01/15 16:15:25;;;;;;;13.6;6.1;;;;;;;0.39;68.38;96666.666666667;;;;
2024/01/15 16:26:25;;;;;;;12;5.8;;;;;;;0.51;68.63;96673.333333333;;;;
2024/01/15 16:36:25;;;;;;;12;5.8;;;;;;;0.6;69.1;96681.666666667;;;;
2024/01/15 16:46:25;;;;;;;12;5.8;;;;;;;0.65;69.14;96685;;;;
2024/01/15 16:56:25;;;;;;;10.1;6;;;;;;;0.66;69.23;96690;;;;
2024/01/15 17:07:25;;;;;;;10.1;6;;;;;;;0.67;69.61;96696.666666667;;;;
2024/01/15 17:18:25;;;;;;;10.1;6;;;;;;;0.64;70.36;96693.333333333;;;;
2024/01/15 17:28:25;;;;;;;8.9;4.4;;;;;;;0.59;71.15;96695;;;;
2024/01/15 17:39:25;;;;;;;8.9;4.4;;;;;;;0.53;72.38;96711.666666667;;;;
2024/01/15 17:49:26;;;;;;;8.9;4.4;;;;;;;0.48;72.67;96721.666666667;;;;
2024/01/15 17:59:25;;;;;;;8.6;5.4;;;;;;;0.43;73.87;96718.333333333;;;;
2024/01/15 18:09:25;;;;;;;8.6;5.4;;;;;;;0.42;75.04;96720;;;;
2024/01/15 18:20:25;;;;;;;8.6;5.4;;;;;;;0.34;76.07;96735;;;;
2024/01/15 18:31:27;;;;;;;11.1;6;;;;;;;0.35;77.09;96740;;;;
2024/01/15 18:42:26;;;;;;;11.1;6;;;;;;;0.16;78.97;96743.333333333;;;;
2024/01/15 18:52:25;;;;;;;11.1;6;;;;;;;0.23;79.52;96745;;;;
2024/01/15 19:03:25;;;;;;;9.5;5.3;;;;;;;0.16;79.64;96756.666666667;;;;
2024/01/15 19:14:25;;;;;;;9.5;5.3;;;;;;;0.12;80.21;96760;;;;
2024/01/15 19:25:25;;;;;;;8.9;5.1;;;;;;;-0.02;80.33;96753.333333333;;;;
2024/01/15 19:36:26;;;;;;;8.9;5.1;;;;;;;0.04;80.01;96756.666666667;;;;
2024/01/15 19:46:25;;;;;;;8.9;5.1;;;;;;;-0.01;79.36;96745;;;;
2024/01/15 19:57:25;;;;;;;10.1;5.2;;;;;;;-0.1;79.2;96756.666666667;;;;
2024/01/15 20:07:25;;;;;;;10.1;5.2;;;;;;;-0.12;79.04;96755;;;;
2024/01/15 20:18:25;;;;;;;10.1;5.2;;;;;;;-0.29;77.05;96761.666666667;;;;
2024/01/15 20:28:25;;;;;;;11.3;4.5;;;;;;;-0.37;76.52;96775;;;;
2024/01/15 20:39:25;;;;;;;11.3;4.5;;;;;;;-0.31;74.99;96788.333333333;;;;
2024/01/15 20:49:26;;;;;;;11.3;4.5;;;;;;;0;73.04;96796.666666667;;;;
2024/01/15 21:00:26;;;;;;;7;3.8;;;;;;;0.27;71.68;96791.666666667;;;;
2024/01/15 21:11:26;;;;;;;7;3.8;;;;;;;0.35;72.85;96811.666666667;;;;
2024/01/15 21:21:26;;;;;;;7;3.8;;;;;;;0.36;73.12;96813.333333333;;;;
2024/01/15 21:32:25;;;;;;;7;3.8;;;;;;;0.47;71.27;96838.333333333;;;;
2024/01/15 21:43:25;;;;;;;7;3.8;;;;;;;0.45;71.17;96851.666666667;;;;
2024/01/15 21:54:25;;;;;;;7.6;3.7;;;;;;;0.42;71.92;96860;;;;
2024/01/15 22:05:25;;;;;;;7.6;3.7;;;;;;;0.38;72.87;96870;;;;
2024/01/15 22:16:26;;;;;;;7.6;3.7;;;;;;;0.38;72.3;96873.333333333;;;;
2024/01/15 22:27:25;;;;;;;4.8;3.4;;;;;;;0.29;72.18;96883.333333333;;;;
2024/01/15 22:38:25;;;;;;;4.8;3.4;;;;;;;0.23;72.66;96886.666666667;;;;
2024/01/15 22:48:25;;;;;;;4.8;3.4;;;;;;;0.24;72.94;96888.333333333;;;;
2024/01/15 22:59:26;;;;;;;6.2;3;;;;;;;0.03;72.77;96901.666666667;;;;
2024/01/15 23:10:26;;;;;;;6.2;3;;;;;;;0.01;73.18;96911.666666667;;;;
2024/01/15 23:21:26;;;;;;;6.2;3;;;;;;;0.1;73.03;96920;;;;
2024/01/15 23:31:26;;;;;;;5.7;3.3;;;;;;;0.18;73.42;96933.333333333;;;;
2024/01/15 23:42:25;;;;;;;5.7;3.3;;;;;;;0.27;73.13;96943.333333333;;;;
2024/01/15 23:52:26;;;;;;;6.8;3.4;;;;;;;-0.16;84.5;96970;;;;
